createdAt,value
2017-11-19T00:00:15.991Z,996.57
2017-11-19T00:01:25.830Z,996.59
2017-11-19T00:02:35.927Z,996.61
2017-11-19T00:03:45.732Z,996.61
2017-11-19T00:04:55.837Z,996.58
2017-11-19T00:06:05.674Z,996.44
2017-11-19T00:07:15.787Z,996.45
2017-11-19T00:08:25.925Z,996.5
2017-11-19T00:09:36.042Z,996.46
2017-11-19T00:10:45.864Z,996.56
2017-11-19T00:11:55.682Z,996.5
2017-11-19T00:13:05.488Z,996.57
2017-11-19T00:14:15.152Z,996.53
2017-11-19T00:15:26.030Z,996.42
2017-11-19T00:16:36.122Z,996.4
2017-11-19T00:17:46.213Z,996.42
2017-11-19T00:18:56.039Z,996.46
2017-11-19T00:20:05.844Z,996.42
2017-11-19T00:21:15.657Z,996.51
2017-11-19T00:22:25.756Z,996.49
2017-11-19T00:23:35.336Z,996.48
2017-11-19T00:24:45.163Z,996.45
2017-11-19T00:25:54.763Z,996.46
2017-11-19T00:27:04.857Z,996.4
2017-11-19T00:28:14.959Z,996.41
2017-11-19T00:29:25.045Z,996.4
2017-11-19T00:30:35.155Z,996.43
2017-11-19T00:31:45.013Z,996.38
2017-11-19T00:32:55.097Z,996.42
2017-11-19T00:34:04.926Z,996.29
2017-11-19T00:35:14.745Z,996.31
2017-11-19T00:36:24.838Z,996.4
2017-11-19T00:37:34.649Z,996.37
2017-11-19T00:38:44.196Z,996.35
2017-11-19T00:39:54.262Z,996.4
2017-11-19T00:41:04.109Z,996.35
2017-11-19T00:42:13.920Z,996.45
2017-11-19T00:43:23.749Z,996.38
2017-11-19T00:44:33.857Z,996.41
2017-11-19T00:45:43.668Z,996.38
2017-11-19T00:46:53.743Z,996.39
2017-11-19T00:48:03.832Z,996.33
2017-11-19T00:49:13.962Z,996.33
2017-11-19T00:50:24.009Z,996.26
2017-11-19T00:51:33.572Z,996.28
2017-11-19T00:52:43.378Z,996.33
2017-11-19T00:53:53.477Z,996.3
2017-11-19T00:55:03.296Z,996.37
2017-11-19T00:56:13.388Z,996.31
2017-11-19T00:57:23.474Z,996.36
2017-11-19T00:58:33.028Z,996.39
2017-11-19T00:59:43.150Z,996.36
2017-11-19T01:00:53.231Z,996.37
2017-11-19T01:02:03.310Z,996.41
2017-11-19T01:03:13.407Z,996.42
2017-11-19T01:04:37.951Z,996.31
2017-11-19T01:05:47.756Z,996.39
2017-11-19T01:06:57.575Z,996.39
2017-11-19T01:08:06.846Z,996.4
2017-11-19T01:09:16.961Z,996.35
2017-11-19T01:10:27.099Z,996.38
2017-11-19T01:11:36.925Z,996.43
2017-11-19T01:12:46.743Z,996.42
2017-11-19T01:13:56.333Z,996.39
2017-11-19T01:15:06.421Z,996.37
2017-11-19T01:16:16.511Z,996.34
2017-11-19T01:17:26.318Z,996.44
2017-11-19T01:18:36.420Z,996.41
2017-11-19T01:19:46.227Z,996.41
2017-11-19T01:20:56.333Z,996.42
2017-11-19T01:22:06.420Z,996.37
2017-11-19T01:23:16.227Z,996.32
2017-11-19T01:24:26.048Z,996.28
2017-11-19T01:25:35.886Z,996.26
2017-11-19T01:26:45.712Z,996.18
2017-11-19T01:27:55.786Z,996.21
2017-11-19T01:29:05.891Z,996.18
2017-11-19T01:30:15.691Z,996.19
2017-11-19T01:31:25.509Z,996.13
2017-11-19T01:32:35.582Z,996.13
2017-11-19T01:33:45.666Z,996.06
2017-11-19T01:34:55.491Z,996.14
2017-11-19T01:36:05.047Z,996.06
2017-11-19T01:37:14.585Z,996.1
2017-11-19T01:38:24.706Z,996.08
2017-11-19T01:39:34.782Z,995.96
2017-11-19T01:40:44.584Z,995.92
2017-11-19T01:41:54.642Z,995.91
2017-11-19T01:43:04.716Z,995.93
2017-11-19T01:44:14.518Z,995.95
2017-11-19T01:45:24.582Z,996.02
2017-11-19T01:46:34.562Z,996.07
2017-11-19T01:47:44.095Z,995.96
2017-11-19T01:48:54.172Z,995.98
2017-11-19T01:50:04.259Z,995.93
2017-11-19T01:51:14.351Z,995.94
2017-11-19T01:52:24.152Z,995.91
2017-11-19T01:53:34.240Z,995.86
2017-11-19T01:54:44.074Z,995.87
2017-11-19T01:55:53.886Z,995.95
2017-11-19T01:57:04.064Z,995.86
2017-11-19T01:58:14.028Z,995.91
2017-11-19T01:59:24.101Z,995.92
2017-11-19T02:00:34.196Z,995.88
2017-11-19T02:01:43.737Z,995.86
2017-11-19T02:02:53.976Z,995.82
2017-11-19T02:04:04.045Z,995.79
2017-11-19T02:05:13.866Z,995.84
2017-11-19T02:06:26.358Z,995.87
2017-11-19T02:07:36.173Z,995.8
2017-11-19T02:08:46.258Z,995.88
2017-11-19T02:09:56.339Z,995.8
2017-11-19T02:11:06.410Z,995.76
2017-11-19T02:12:16.500Z,995.74
2017-11-19T02:13:26.038Z,995.8
2017-11-19T02:14:36.176Z,995.66
2017-11-19T02:15:47.121Z,995.6
2017-11-19T02:16:57.203Z,995.67
2017-11-19T02:18:07.001Z,995.71
2017-11-19T02:19:16.541Z,995.64
2017-11-19T02:20:26.673Z,995.69
2017-11-19T02:21:36.777Z,995.66
2017-11-19T02:22:46.878Z,995.61
2017-11-19T02:23:56.953Z,995.53
2017-11-19T02:25:06.756Z,995.49
2017-11-19T02:26:16.876Z,995.53
2017-11-19T02:27:26.704Z,995.56
2017-11-19T02:28:36.787Z,995.5
2017-11-19T02:29:46.612Z,995.37
2017-11-19T02:30:56.186Z,995.45
2017-11-19T02:32:05.722Z,995.44
2017-11-19T02:33:15.781Z,995.43
2017-11-19T02:34:25.855Z,995.4
2017-11-19T02:35:35.991Z,995.39
2017-11-19T02:36:46.088Z,995.43
2017-11-19T02:37:55.965Z,995.36
2017-11-19T02:39:05.777Z,995.42
2017-11-19T02:40:15.322Z,995.37
2017-11-19T02:41:25.393Z,995.31
2017-11-19T02:42:35.246Z,995.39
2017-11-19T02:43:45.087Z,995.32
2017-11-19T02:44:54.894Z,995.31
2017-11-19T02:46:04.979Z,995.35
2017-11-19T02:47:15.050Z,995.29
2017-11-19T02:48:24.583Z,995.33
2017-11-19T02:49:34.659Z,995.3
2017-11-19T02:50:44.479Z,995.28
2017-11-19T02:51:54.026Z,995.32
2017-11-19T02:53:04.117Z,995.34
2017-11-19T02:54:14.204Z,995.3
2017-11-19T02:55:24.298Z,995.33
2017-11-19T02:56:34.384Z,995.31
2017-11-19T02:57:44.199Z,995.31
2017-11-19T02:58:54.304Z,995.38
2017-11-19T03:00:04.392Z,995.35
2017-11-19T03:01:15.664Z,995.4
2017-11-19T03:02:25.477Z,995.38
2017-11-19T03:33:42.397Z,995.33
2017-11-19T03:34:52.477Z,995.39
2017-11-19T03:36:02.563Z,995.35
2017-11-19T03:37:12.631Z,995.33
2017-11-19T03:38:22.438Z,995.26
2017-11-19T03:39:32.537Z,995.26
2017-11-19T03:40:42.330Z,995.28
2017-11-19T03:41:52.140Z,995.21
2017-11-19T03:43:02.225Z,995.26
2017-11-19T03:44:12.297Z,995.18
2017-11-19T03:45:22.426Z,995.22
2017-11-19T03:46:32.254Z,995.2
2017-11-19T03:47:42.066Z,995.17
2017-11-19T03:48:51.612Z,995.18
2017-11-19T03:50:01.693Z,995.18
2017-11-19T03:51:11.279Z,995.19
2017-11-19T03:52:21.403Z,995.26
2017-11-19T03:53:31.478Z,995.17
2017-11-19T03:54:41.560Z,995.25
2017-11-19T03:55:51.633Z,995.34
2017-11-19T03:57:01.448Z,995.29
2017-11-19T03:58:11.525Z,995.3
2017-11-19T03:59:21.070Z,995.31
2017-11-19T04:00:31.148Z,995.28
2017-11-19T04:01:41.237Z,995.37
2017-11-19T04:02:51.329Z,995.36
2017-11-19T04:04:01.404Z,995.39
2017-11-19T04:05:11.213Z,995.3
2017-11-19T04:06:21.287Z,995.3
2017-11-19T04:07:31.384Z,995.34
2017-11-19T04:08:41.471Z,995.29
2017-11-19T04:09:51.544Z,995.3
2017-11-19T04:11:01.623Z,995.34
2017-11-19T04:12:11.436Z,995.31
2017-11-19T04:13:21.526Z,995.24
2017-11-19T04:14:31.065Z,995.22
2017-11-19T04:15:40.609Z,995.3
2017-11-19T04:16:50.686Z,995.34
2017-11-19T04:18:00.766Z,995.31
2017-11-19T04:19:10.823Z,995.29
2017-11-19T04:20:20.984Z,995.23
2017-11-19T04:21:31.048Z,995.23
2017-11-19T04:22:41.154Z,995.25
2017-11-19T04:23:50.977Z,995.24
2017-11-19T04:25:00.775Z,995.23
2017-11-19T04:26:10.871Z,995.24
2017-11-19T04:27:20.951Z,995.26
2017-11-19T04:28:30.767Z,995.23
2017-11-19T04:29:40.839Z,995.23
2017-11-19T04:30:50.919Z,995.27
2017-11-19T04:32:00.460Z,995.24
2017-11-19T04:33:10.273Z,995.24
2017-11-19T04:34:20.347Z,995.2
2017-11-19T04:35:30.154Z,995.22
2017-11-19T04:36:39.969Z,995.14
2017-11-19T04:37:49.855Z,995.19
2017-11-19T04:38:59.702Z,995.1
2017-11-19T04:40:09.795Z,995.14
2017-11-19T04:41:19.875Z,995.09
2017-11-19T04:42:29.958Z,995.08
2017-11-19T04:43:39.856Z,995.02
2017-11-19T04:44:49.691Z,995.02
2017-11-19T04:45:59.501Z,995.07
2017-11-19T04:47:09.589Z,995.04
2017-11-19T04:48:19.669Z,995.07
2017-11-19T04:49:29.528Z,995.12
2017-11-19T04:50:39.605Z,995.1
2017-11-19T04:51:49.450Z,995.09
2017-11-19T04:52:59.513Z,995.14
2017-11-19T04:54:09.593Z,995.17
2017-11-19T04:55:19.682Z,995.16
2017-11-19T04:56:29.488Z,995.17
2017-11-19T04:57:39.587Z,995.1
2017-11-19T04:58:49.411Z,995.09
2017-11-19T04:59:59.502Z,995.15
2017-11-19T05:01:09.330Z,995.05
2017-11-19T05:02:19.409Z,995.04
2017-11-19T05:03:29.223Z,995.1
2017-11-19T05:04:39.324Z,995.12
2017-11-19T05:05:49.133Z,995.13
2017-11-19T05:06:59.200Z,995.1
2017-11-19T05:08:09.297Z,995.16
2017-11-19T05:09:19.174Z,995.12
2017-11-19T05:10:28.980Z,995.06
2017-11-19T05:11:39.033Z,995.05
2017-11-19T05:12:48.849Z,995.02
2017-11-19T05:13:58.681Z,995.09
2017-11-19T05:15:08.779Z,995.06
2017-11-19T05:16:18.592Z,995.14
2017-11-19T05:17:28.425Z,995.1
2017-11-19T05:18:38.017Z,995.05
2017-11-19T05:19:48.115Z,995.06
2017-11-19T05:20:58.212Z,995.04
2017-11-19T05:22:08.035Z,995.05
2017-11-19T05:23:17.575Z,995.02
2017-11-19T05:24:27.690Z,995.02
2017-11-19T05:25:37.525Z,995.02
2017-11-19T05:26:47.339Z,995.04
2017-11-19T05:27:57.156Z,995.01
2017-11-19T05:29:06.956Z,995
2017-11-19T05:30:16.834Z,994.99
2017-11-19T05:31:26.922Z,994.97
2017-11-19T05:32:36.737Z,994.97
2017-11-19T05:33:46.544Z,995
2017-11-19T05:34:56.358Z,994.95
2017-11-19T05:36:06.243Z,995
2017-11-19T05:37:16.315Z,994.98
2017-11-19T05:38:26.377Z,995.03
2017-11-19T05:39:36.446Z,995.06
2017-11-19T05:40:46.271Z,995.03
2017-11-19T05:41:56.094Z,995.02
2017-11-19T05:43:06.173Z,995.04
2017-11-19T05:44:15.982Z,995.03
2017-11-19T05:45:25.808Z,995.06
2017-11-19T05:46:35.889Z,995.07
2017-11-19T05:47:45.988Z,995.04
2017-11-19T05:48:56.069Z,995.04
2017-11-19T05:50:05.869Z,995
2017-11-19T05:51:15.687Z,994.98
2017-11-19T05:52:25.777Z,994.98
2017-11-19T05:53:35.365Z,994.97
2017-11-19T05:54:45.457Z,995
2017-11-19T05:55:55.541Z,994.98
2017-11-19T05:57:05.124Z,994.99
2017-11-19T05:58:15.199Z,995
2017-11-19T05:59:25.019Z,995.02
2017-11-19T06:00:34.302Z,994.98
2017-11-19T06:01:44.140Z,994.99
2017-11-19T06:02:53.972Z,995.03
2017-11-19T06:04:04.075Z,995.01
2017-11-19T06:05:13.601Z,995.08
2017-11-19T06:06:23.404Z,995.06
2017-11-19T06:07:33.200Z,995.11
2017-11-19T06:08:43.289Z,995.03
2017-11-19T06:09:53.154Z,995.08
2017-11-19T06:11:03.250Z,995.05
2017-11-19T06:12:13.362Z,995.01
2017-11-19T06:13:23.203Z,995.04
2017-11-19T06:14:33.012Z,995.03
2017-11-19T06:15:42.857Z,995.05
2017-11-19T06:16:52.675Z,995.12
2017-11-19T06:18:02.215Z,995.09
2017-11-19T06:19:11.788Z,995.12
2017-11-19T06:20:21.595Z,995.14
2017-11-19T06:21:31.725Z,995.13
2017-11-19T06:22:41.548Z,995.14
2017-11-19T06:23:51.359Z,995.11
2017-11-19T06:25:01.476Z,995.09
2017-11-19T06:26:11.567Z,995.11
2017-11-19T06:27:21.629Z,995.1
2017-11-19T06:28:31.470Z,995.18
2017-11-19T06:29:41.566Z,995.08
2017-11-19T06:30:51.651Z,995.07
2017-11-19T06:32:01.746Z,995.08
2017-11-19T06:33:11.909Z,995.02
2017-11-19T06:34:21.975Z,995.04
2017-11-19T06:35:31.793Z,994.99
2017-11-19T06:36:41.592Z,994.97
2017-11-19T06:37:51.433Z,994.98
2017-11-19T06:39:00.986Z,995
2017-11-19T06:40:10.537Z,994.96
2017-11-19T06:41:20.611Z,994.94
2017-11-19T06:42:30.416Z,995
2017-11-19T06:43:40.245Z,994.96
2017-11-19T06:44:50.339Z,995.02
2017-11-19T06:46:00.159Z,995.01
2017-11-19T06:47:10.237Z,995.01
2017-11-19T06:48:20.048Z,994.97
2017-11-19T06:49:29.888Z,994.97
2017-11-19T06:50:39.482Z,995.02
2017-11-19T06:51:49.559Z,994.99
2017-11-19T06:52:59.640Z,994.96
2017-11-19T06:54:09.449Z,994.97
2017-11-19T06:55:19.539Z,994.98
2017-11-19T06:56:29.363Z,994.95
2017-11-19T06:57:39.750Z,994.96
2017-11-19T06:58:49.838Z,994.95
2017-11-19T06:59:59.901Z,994.98
2017-11-19T07:01:09.777Z,994.94
2017-11-19T07:02:19.629Z,994.97
2017-11-19T07:03:29.434Z,994.94
2017-11-19T07:04:39.247Z,994.93
2017-11-19T07:05:49.337Z,994.84
2017-11-19T07:06:59.437Z,994.82
2017-11-19T07:08:09.575Z,994.76
2017-11-19T07:09:19.135Z,994.8
2017-11-19T07:10:29.239Z,994.86
2017-11-19T07:11:39.072Z,994.77
2017-11-19T07:12:49.177Z,994.74
2017-11-19T07:13:59.002Z,994.73
2017-11-19T07:15:08.834Z,994.75
2017-11-19T07:16:18.668Z,994.74
2017-11-19T07:17:28.526Z,994.77
2017-11-19T07:18:38.079Z,994.84
2017-11-19T07:19:48.156Z,994.8
2017-11-19T07:20:57.982Z,994.78
2017-11-19T07:22:08.055Z,994.77
2017-11-19T07:23:17.896Z,994.73
2017-11-19T07:24:27.726Z,994.76
2017-11-19T07:25:37.273Z,994.75
2017-11-19T07:26:47.088Z,994.76
2017-11-19T07:27:56.898Z,994.74
2017-11-19T07:29:06.462Z,994.77
2017-11-19T07:30:16.566Z,994.72
2017-11-19T07:31:27.184Z,994.68
2017-11-19T07:32:37.256Z,994.67
2017-11-19T07:33:46.812Z,994.58
2017-11-19T07:34:56.632Z,994.7
2017-11-19T07:36:06.445Z,994.6
2017-11-19T07:37:16.627Z,994.62
2017-11-19T07:38:26.176Z,994.62
2017-11-19T07:39:35.995Z,994.61
2017-11-19T07:40:45.550Z,994.6
2017-11-19T07:41:55.633Z,994.56
2017-11-19T07:43:05.453Z,994.55
2017-11-19T07:44:15.266Z,994.5
2017-11-19T07:45:25.357Z,994.54
2017-11-19T07:46:35.433Z,994.53
2017-11-19T07:47:44.970Z,994.49
2017-11-19T07:48:54.814Z,994.47
2017-11-19T07:50:04.629Z,994.44
2017-11-19T07:51:14.752Z,994.45
2017-11-19T07:52:24.574Z,994.48
2017-11-19T07:53:34.396Z,994.42
2017-11-19T07:54:44.196Z,994.4
2017-11-19T07:55:54.038Z,994.39
2017-11-19T07:57:04.111Z,994.42
2017-11-19T07:58:14.203Z,994.35
2017-11-19T07:59:24.297Z,994.39
2017-11-19T08:00:34.382Z,994.34
2017-11-19T08:01:43.924Z,994.34
2017-11-19T08:02:54.023Z,994.38
2017-11-19T08:04:03.832Z,994.4
2017-11-19T08:05:13.936Z,994.43
2017-11-19T08:06:23.766Z,994.36
2017-11-19T08:07:33.855Z,994.39
2017-11-19T08:08:43.975Z,994.35
2017-11-19T08:09:53.527Z,994.43
2017-11-19T08:11:03.613Z,994.37
2017-11-19T08:12:13.755Z,994.46
2017-11-19T08:13:23.860Z,994.35
2017-11-19T08:14:33.681Z,994.35
2017-11-19T08:15:43.778Z,994.38
2017-11-19T08:16:53.585Z,994.39
2017-11-19T08:18:03.736Z,994.37
2017-11-19T08:19:13.812Z,994.38
2017-11-19T08:20:23.908Z,994.41
2017-11-19T08:21:33.976Z,994.39
2017-11-19T08:22:44.078Z,994.44
2017-11-19T08:23:54.172Z,994.42
2017-11-19T08:25:04.263Z,994.46
2017-11-19T08:26:14.365Z,994.46
2017-11-19T08:27:24.180Z,994.48
2017-11-19T08:28:34.623Z,994.45
2017-11-19T08:29:44.712Z,994.51
2017-11-19T08:30:54.547Z,994.5
2017-11-19T08:32:05.019Z,994.48
2017-11-19T08:33:14.574Z,994.49
2017-11-19T08:34:24.671Z,994.48
2017-11-19T08:35:34.549Z,994.54
2017-11-19T08:36:44.645Z,994.55
2017-11-19T08:37:54.197Z,994.53
2017-11-19T08:39:04.007Z,994.56
2017-11-19T08:40:13.847Z,994.55
2017-11-19T08:41:23.976Z,994.62
2017-11-19T08:42:34.072Z,994.62
2017-11-19T08:43:44.148Z,994.6
2017-11-19T08:44:54.247Z,994.59
2017-11-19T08:46:04.358Z,994.65
2017-11-19T08:47:14.488Z,994.6
2017-11-19T08:48:24.573Z,994.65
2017-11-19T08:49:34.403Z,994.62
2017-11-19T08:50:44.502Z,994.59
2017-11-19T08:51:54.587Z,994.66
2017-11-19T08:53:04.760Z,994.66
2017-11-19T08:54:14.852Z,994.62
2017-11-19T08:55:24.146Z,994.64
2017-11-19T08:56:33.953Z,994.57
2017-11-19T08:57:44.052Z,994.6
2017-11-19T08:58:53.869Z,994.6
2017-11-19T09:00:03.421Z,994.59
2017-11-19T09:01:13.493Z,994.56
2017-11-19T09:02:23.577Z,994.56
2017-11-19T09:03:33.676Z,994.54
2017-11-19T09:04:43.584Z,994.52
2017-11-19T09:05:53.163Z,994.53
2017-11-19T09:07:03.246Z,994.52
2017-11-19T09:08:13.344Z,994.52
2017-11-19T09:09:24.135Z,994.49
2017-11-19T09:10:34.024Z,994.52
2017-11-19T09:11:43.906Z,994.52
2017-11-19T09:12:54.055Z,994.47
2017-11-19T09:14:04.143Z,994.52
2017-11-19T09:15:14.230Z,994.53
2017-11-19T09:16:24.360Z,994.47
2017-11-19T09:17:33.901Z,994.47
2017-11-19T09:18:43.733Z,994.49
2017-11-19T09:19:53.277Z,994.53
2017-11-19T09:21:03.126Z,994.52
2017-11-19T09:22:13.213Z,994.47
2017-11-19T09:23:23.292Z,994.42
2017-11-19T09:24:33.482Z,994.45
2017-11-19T09:25:43.574Z,994.47
2017-11-19T09:26:53.419Z,994.45
2017-11-19T09:28:03.387Z,994.43
2017-11-19T09:29:12.944Z,994.47
2017-11-19T09:30:23.020Z,994.44
2017-11-19T09:31:33.100Z,994.42
2017-11-19T09:32:43.195Z,994.45
2017-11-19T09:33:52.840Z,994.45
2017-11-19T09:35:02.622Z,994.42
2017-11-19T09:36:12.445Z,994.43
2017-11-19T09:37:22.271Z,994.51
2017-11-19T09:38:32.101Z,994.46
2017-11-19T09:39:42.185Z,994.41
2017-11-19T09:40:52.023Z,994.56
2017-11-19T09:42:02.120Z,994.55
2017-11-19T09:43:12.217Z,994.53
2017-11-19T09:44:22.062Z,994.51
2017-11-19T09:45:32.235Z,994.54
2017-11-19T09:46:42.342Z,994.47
2017-11-19T09:47:52.159Z,994.55
2017-11-19T09:49:02.272Z,994.51
2017-11-19T09:50:12.098Z,994.46
2017-11-19T09:51:22.189Z,994.52
2017-11-19T09:52:32.019Z,994.47
2017-11-19T09:53:42.108Z,994.54
2017-11-19T09:54:51.922Z,994.48
2017-11-19T09:56:02.665Z,994.56
2017-11-19T09:57:12.301Z,994.5
2017-11-19T09:58:22.117Z,994.49
2017-11-19T09:59:31.935Z,994.54
2017-11-19T10:00:41.231Z,994.54
2017-11-19T10:01:51.385Z,994.38
2017-11-19T10:03:01.294Z,994.38
2017-11-19T10:04:11.386Z,994.35
2017-11-19T10:05:21.271Z,994.31
2017-11-19T10:06:31.381Z,994.31
2017-11-19T10:07:41.488Z,994.31
2017-11-19T10:08:51.339Z,994.33
2017-11-19T10:10:01.405Z,994.37
2017-11-19T10:11:11.496Z,994.35
2017-11-19T10:12:21.584Z,994.28
2017-11-19T10:13:31.404Z,994.29
2017-11-19T10:14:41.495Z,994.34
2017-11-19T10:15:51.589Z,994.25
2017-11-19T10:17:01.442Z,994.26
2017-11-19T10:18:11.007Z,994.22
2017-11-19T10:19:21.028Z,994.21
2017-11-19T10:20:30.927Z,994.23
2017-11-19T10:21:40.509Z,994.22
2017-11-19T10:22:50.587Z,994.2
2017-11-19T10:24:00.408Z,994.19
2017-11-19T10:25:10.533Z,994.2
2017-11-19T10:26:20.660Z,994.18
2017-11-19T10:27:30.751Z,994.2
2017-11-19T10:28:40.825Z,994.24
2017-11-19T10:29:50.641Z,994.25
2017-11-19T10:31:00.466Z,994.27
2017-11-19T10:32:10.595Z,994.28
2017-11-19T10:33:20.672Z,994.19
2017-11-19T10:34:30.778Z,994.19
2017-11-19T10:35:40.355Z,994.19
2017-11-19T10:36:50.486Z,994.21
2017-11-19T10:38:00.318Z,994.14
2017-11-19T10:39:10.416Z,994.13
2017-11-19T10:40:20.248Z,994.17
2017-11-19T10:41:30.396Z,994.15
2017-11-19T10:42:40.478Z,994.18
2017-11-19T10:43:50.309Z,994.17
2017-11-19T10:44:59.876Z,994.14
2017-11-19T10:46:09.951Z,994.13
2017-11-19T10:47:20.033Z,994.11
2017-11-19T10:48:29.864Z,994.16
2017-11-19T10:49:39.953Z,994.15
2017-11-19T10:50:50.045Z,994.11
2017-11-19T10:52:00.160Z,994.13
2017-11-19T10:53:10.270Z,994.2
2017-11-19T10:54:20.357Z,994.13
2017-11-19T10:55:30.168Z,994.12
2017-11-19T10:56:39.975Z,994.18
2017-11-19T10:57:49.788Z,994.15
2017-11-19T10:58:59.625Z,994.12
2017-11-19T11:00:09.697Z,994.1
2017-11-19T11:01:19.784Z,994.1
2017-11-19T11:02:29.870Z,994.11
2017-11-19T11:03:39.956Z,994.12
2017-11-19T11:04:50.894Z,994.14
2017-11-19T11:06:00.769Z,994.1
2017-11-19T11:07:10.872Z,994.1
2017-11-19T11:08:20.964Z,994.05
2017-11-19T11:09:31.058Z,994.09
2017-11-19T11:10:40.632Z,994.05
2017-11-19T11:11:50.243Z,994.07
2017-11-19T11:13:00.331Z,994.04
2017-11-19T11:14:10.421Z,994.03
2017-11-19T11:15:20.510Z,994
2017-11-19T11:16:30.627Z,994.05
2017-11-19T11:17:40.453Z,994.05
2017-11-19T11:18:50.545Z,994.05
2017-11-19T11:20:00.641Z,994.13
2017-11-19T11:21:10.478Z,994.11
2017-11-19T11:22:20.626Z,994.01
2017-11-19T11:23:30.748Z,994.09
2017-11-19T11:24:40.831Z,994.05
2017-11-19T11:25:50.677Z,994.03
2017-11-19T11:27:00.227Z,994.03
2017-11-19T11:28:10.073Z,994.18
2017-11-19T11:29:19.899Z,994.17
2017-11-19T11:30:30.002Z,994.1
2017-11-19T11:31:39.819Z,994.13
2017-11-19T11:32:49.961Z,994.12
2017-11-19T11:34:00.161Z,994.16
2017-11-19T11:35:11.403Z,994.1
2017-11-19T11:36:21.515Z,994.15
2017-11-19T11:37:31.068Z,994.16
2017-11-19T11:38:40.897Z,994.13
2017-11-19T11:39:50.718Z,994.24
2017-11-19T11:41:00.859Z,994.12
2017-11-19T11:42:10.698Z,994.24
2017-11-19T11:43:20.780Z,994.25
2017-11-19T11:44:30.867Z,994.27
2017-11-19T11:45:40.710Z,994.23
2017-11-19T11:46:50.795Z,994.21
2017-11-19T11:48:00.615Z,994.24
2017-11-19T11:49:10.705Z,994.28
2017-11-19T11:50:20.292Z,994.32
2017-11-19T11:51:30.116Z,994.27
2017-11-19T11:52:39.996Z,994.22
2017-11-19T11:53:50.117Z,994.25
2017-11-19T11:54:59.955Z,994.25
2017-11-19T11:56:09.761Z,994.29
2017-11-19T11:57:19.844Z,994.28
2017-11-19T11:58:29.653Z,994.29
2017-11-19T11:59:39.459Z,994.27
2017-11-19T12:00:49.583Z,994.32
2017-11-19T12:01:59.653Z,994.31
2017-11-19T12:03:09.546Z,994.29
2017-11-19T12:04:19.674Z,994.27
2017-11-19T12:05:29.524Z,994.33
2017-11-19T12:06:39.342Z,994.37
2017-11-19T12:07:49.196Z,994.39
2017-11-19T12:08:59.022Z,994.38
2017-11-19T12:10:08.581Z,994.36
2017-11-19T12:11:18.692Z,994.39
2017-11-19T12:12:28.001Z,994.4
2017-11-19T12:13:37.815Z,994.49
2017-11-19T12:14:47.628Z,994.52
2017-11-19T12:15:57.745Z,994.5
2017-11-19T12:17:07.854Z,994.48
2017-11-19T12:18:17.419Z,994.62
2017-11-19T12:19:27.238Z,994.39
2017-11-19T12:20:37.325Z,994.41
2017-11-19T12:21:47.434Z,994.42
2017-11-19T12:22:57.021Z,994.39
2017-11-19T12:24:07.155Z,994.44
2017-11-19T12:25:17.266Z,994.45
2017-11-19T12:26:26.821Z,994.47
2017-11-19T12:27:36.687Z,994.43
2017-11-19T12:28:46.814Z,994.44
2017-11-19T12:29:56.935Z,994.47
2017-11-19T12:31:07.063Z,994.47
2017-11-19T12:32:17.199Z,994.48
2017-11-19T12:33:27.283Z,994.5
2017-11-19T12:34:37.404Z,994.53
2017-11-19T12:35:47.243Z,994.54
2017-11-19T12:36:57.058Z,994.53
2017-11-19T12:38:07.179Z,994.7
2017-11-19T12:39:17.028Z,994.57
2017-11-19T12:40:26.867Z,994.57
2017-11-19T12:41:36.949Z,994.5
2017-11-19T12:42:46.768Z,994.47
2017-11-19T12:43:56.319Z,994.48
2017-11-19T12:45:06.417Z,994.54
2017-11-19T12:46:16.514Z,994.52
2017-11-19T12:47:26.715Z,994.53
2017-11-19T12:48:36.524Z,994.55
2017-11-19T12:49:46.621Z,994.56
2017-11-19T12:50:56.747Z,994.55
2017-11-19T12:52:06.849Z,994.48
2017-11-19T12:53:16.956Z,994.48
2017-11-19T12:54:26.762Z,994.47
2017-11-19T12:55:36.573Z,994.47
2017-11-19T12:56:46.154Z,994.48
2017-11-19T12:57:56.248Z,994.48
2017-11-19T12:59:06.310Z,994.51
2017-11-19T13:00:16.118Z,994.51
2017-11-19T13:01:26.216Z,994.53
2017-11-19T13:02:36.303Z,994.45
2017-11-19T13:03:46.375Z,994.48
2017-11-19T13:04:56.258Z,994.47
2017-11-19T13:06:06.356Z,994.48
2017-11-19T13:07:16.183Z,994.51
2017-11-19T13:08:26.071Z,994.51
2017-11-19T13:09:35.897Z,994.52
2017-11-19T13:10:45.994Z,994.49
2017-11-19T13:11:56.109Z,994.47
2017-11-19T13:13:06.202Z,994.51
2017-11-19T13:14:16.040Z,994.53
2017-11-19T13:15:25.580Z,994.54
2017-11-19T13:16:35.667Z,994.54
2017-11-19T13:17:45.751Z,994.57
2017-11-19T13:18:55.854Z,994.57
2017-11-19T13:20:05.774Z,994.63
2017-11-19T13:21:15.873Z,994.61
2017-11-19T13:22:26.050Z,994.65
2017-11-19T13:23:36.176Z,994.63
2017-11-19T13:24:46.015Z,994.64
2017-11-19T13:25:55.596Z,994.67
2017-11-19T13:27:05.417Z,994.68
2017-11-19T13:28:15.550Z,994.7
2017-11-19T13:29:25.666Z,994.75
2017-11-19T13:30:35.755Z,994.77
2017-11-19T13:31:45.846Z,994.83
2017-11-19T13:32:55.670Z,994.85
2017-11-19T13:34:05.863Z,994.82
2017-11-19T13:35:15.675Z,994.76
2017-11-19T13:36:25.491Z,994.81
2017-11-19T13:37:35.590Z,994.79
2017-11-19T13:38:45.661Z,994.79
2017-11-19T13:39:55.501Z,994.81
2017-11-19T13:41:05.585Z,994.84
2017-11-19T13:42:15.425Z,994.87
2017-11-19T13:43:25.229Z,994.81
2017-11-19T13:44:35.297Z,994.77
2017-11-19T13:45:45.397Z,994.73
2017-11-19T13:46:55.220Z,994.8
2017-11-19T13:48:05.057Z,994.82
2017-11-19T13:49:15.206Z,994.81
2017-11-19T13:50:25.283Z,994.88
2017-11-19T13:51:35.106Z,994.83
2017-11-19T13:52:44.926Z,994.86
2017-11-19T13:53:55.012Z,994.85
2017-11-19T13:55:05.144Z,994.89
2017-11-19T13:56:15.258Z,994.9
2017-11-19T13:57:24.819Z,994.86
2017-11-19T13:58:34.663Z,994.95
2017-11-19T13:59:44.466Z,994.96
2017-11-19T14:00:54.572Z,995.02
2017-11-19T14:02:04.411Z,995.04
2017-11-19T14:03:14.217Z,995.12
2017-11-19T14:04:24.038Z,994.97
2017-11-19T14:05:34.110Z,994.84
2017-11-19T14:06:43.723Z,994.84
2017-11-19T14:07:53.292Z,994.9
2017-11-19T14:09:03.617Z,994.87
2017-11-19T14:10:13.721Z,994.9
2017-11-19T14:11:23.862Z,994.9
2017-11-19T14:12:33.718Z,994.87
2017-11-19T14:13:43.274Z,994.89
2017-11-19T14:14:53.098Z,994.88
2017-11-19T14:16:02.642Z,994.93
2017-11-19T14:17:12.780Z,994.89
2017-11-19T14:18:22.926Z,994.86
2017-11-19T14:19:33.018Z,994.82
2017-11-19T14:20:43.139Z,994.87
2017-11-19T14:21:53.242Z,994.84
2017-11-19T14:23:03.352Z,994.84
2017-11-19T14:24:13.490Z,994.88
2017-11-19T14:25:23.613Z,994.85
2017-11-19T14:26:33.449Z,994.82
2017-11-19T14:27:43.265Z,994.91
2017-11-19T14:28:53.077Z,994.9
2017-11-19T14:30:02.958Z,994.86
2017-11-19T14:31:12.782Z,994.84
2017-11-19T14:32:22.853Z,994.83
2017-11-19T14:33:32.953Z,994.86
2017-11-19T14:34:42.791Z,994.81
2017-11-19T14:35:52.904Z,994.78
2017-11-19T14:37:02.725Z,994.85
2017-11-19T14:38:12.544Z,994.85
2017-11-19T14:39:22.363Z,994.85
2017-11-19T14:40:31.671Z,994.8
2017-11-19T14:41:41.331Z,994.83
2017-11-19T14:42:51.147Z,994.83
2017-11-19T14:44:01.231Z,994.83
2017-11-19T14:45:11.343Z,994.85
2017-11-19T14:46:21.176Z,994.79
2017-11-19T14:47:30.803Z,994.8
2017-11-19T14:48:40.623Z,994.79
2017-11-19T14:49:50.727Z,994.81
2017-11-19T14:51:00.589Z,994.8
2017-11-19T14:52:10.929Z,994.82
2017-11-19T14:53:20.803Z,994.84
2017-11-19T14:54:30.348Z,994.8
2017-11-19T14:55:40.478Z,994.79
2017-11-19T14:56:50.758Z,994.75
2017-11-19T14:58:00.860Z,994.77
2017-11-19T14:59:10.208Z,994.77
2017-11-19T15:00:19.741Z,994.77
2017-11-19T15:01:29.845Z,994.79
2017-11-19T15:02:39.657Z,994.75
2017-11-19T15:03:49.757Z,994.72
2017-11-19T15:04:59.835Z,994.72
2017-11-19T15:06:10.164Z,994.75